createdAt,value
2023-03-04T00:02:10.007Z,23.57
2023-03-04T00:07:16.903Z,21.43
2023-03-04T00:12:22.469Z,20.71
2023-03-04T00:17:28.918Z,28.93
2023-03-04T00:22:36.041Z,40.00
2023-03-04T00:27:43.640Z,37.85
2023-03-04T00:32:49.982Z,20.71
2023-03-04T00:37:57.466Z,19.64
2023-03-04T00:43:04.620Z,35.00
2023-03-04T00:48:11.217Z,25.00
2023-03-04T00:53:17.658Z,32.50
2023-03-04T00:58:24.225Z,29.28
2023-03-04T01:03:31.178Z,33.57
2023-03-04T01:08:38.896Z,26.07
2023-03-04T01:13:45.204Z,40.71
2023-03-04T01:18:51.677Z,26.78
2023-03-04T01:23:57.858Z,32.50
2023-03-04T01:29:05.579Z,27.85
2023-03-04T01:34:12.963Z,35.71
2023-03-04T01:39:22.772Z,41.78
2023-03-04T01:44:30.147Z,34.64
2023-03-04T01:49:36.829Z,21.07
2023-03-04T01:54:43.088Z,25.35
2023-03-04T01:59:50.629Z,26.43
2023-03-04T02:04:58.928Z,26.43
2023-03-04T02:10:07.899Z,38.57
2023-03-04T02:15:13.922Z,38.21
2023-03-04T02:20:21.621Z,46.42
2023-03-04T02:25:27.767Z,27.85
2023-03-04T02:30:34.546Z,32.50
2023-03-04T02:35:40.920Z,21.78
2023-03-04T02:40:47.520Z,24.64
2023-03-04T02:45:53.940Z,40.00
2023-03-04T02:51:00.570Z,38.57
2023-03-04T02:56:07.583Z,41.42
2023-03-04T03:01:14.593Z,23.93
2023-03-04T03:06:20.811Z,31.43
2023-03-04T03:11:27.415Z,41.42
2023-03-04T03:16:34.604Z,30.00
2023-03-04T03:21:41.263Z,42.85
2023-03-04T03:26:47.488Z,38.57
2023-03-04T03:31:54.056Z,42.50
2023-03-04T03:37:01.279Z,33.92
2023-03-04T03:42:07.580Z,29.28
2023-03-04T03:47:14.774Z,22.14
2023-03-04T03:52:21.387Z,34.64
2023-03-04T03:57:29.792Z,21.78
2023-03-04T04:02:36.520Z,24.28
2023-03-04T04:07:44.709Z,35.00
2023-03-04T04:12:51.246Z,27.14
2023-03-04T04:17:57.431Z,32.85
2023-03-04T04:23:27.759Z,21.07
2023-03-04T04:28:33.811Z,33.57
2023-03-04T04:33:43.931Z,32.14
2023-03-04T04:38:40.276Z,21.78
2023-03-04T04:43:46.687Z,24.64
2023-03-04T04:48:53.375Z,21.07
2023-03-04T04:54:00.795Z,23.21
2023-03-04T04:59:07.436Z,30.71
2023-03-04T05:04:14.960Z,40.71
2023-03-04T05:09:22.270Z,28.93
2023-03-04T05:14:28.616Z,37.85
2023-03-04T05:19:35.045Z,32.50
2023-03-04T05:24:41.122Z,39.28
2023-03-04T05:29:48.023Z,35.35
2023-03-04T05:34:54.394Z,40.00
2023-03-04T05:40:04.708Z,28.93
2023-03-04T05:45:01.124Z,27.50
2023-03-04T05:50:07.444Z,31.43
2023-03-04T05:55:14.374Z,27.14
2023-03-04T06:00:20.796Z,24.28
2023-03-04T06:05:27.742Z,41.42
2023-03-04T06:10:34.003Z,25.71
2023-03-04T06:15:42.339Z,31.07
2023-03-04T06:20:48.802Z,22.50
2023-03-04T06:25:58.811Z,30.35
2023-03-04T06:30:56.562Z,21.07
2023-03-04T06:36:04.143Z,23.21
2023-03-04T06:41:10.746Z,31.78
2023-03-04T06:46:17.502Z,24.64
2023-03-04T06:51:24.700Z,21.07
2023-03-04T06:56:31.236Z,22.50
2023-03-04T07:01:38.769Z,22.14
2023-03-04T07:06:45.237Z,21.07
2023-03-04T07:11:51.706Z,23.93
2023-03-04T07:17:00.341Z,35.00
2023-03-04T07:22:11.321Z,42.85
2023-03-04T07:27:07.742Z,21.07
2023-03-04T07:32:13.968Z,22.14
2023-03-04T07:37:20.219Z,31.43
2023-03-04T07:42:27.034Z,20.00
2023-03-04T07:47:34.644Z,21.78
2023-03-04T07:52:43.974Z,32.14
2023-03-04T07:57:50.695Z,21.07
2023-03-04T08:02:57.053Z,34.28
2023-03-04T08:08:04.263Z,21.43
2023-03-04T08:13:13.684Z,20.71
2023-03-04T08:18:20.374Z,20.00
2023-03-04T08:23:27.549Z,23.57
2023-03-04T08:28:33.938Z,21.07
2023-03-04T08:33:41.465Z,21.07
2023-03-04T08:38:48.114Z,25.35
2023-03-04T08:43:54.263Z,21.07
2023-03-04T08:49:00.871Z,26.07
2023-03-04T08:54:09.542Z,23.21
2023-03-04T08:59:16.812Z,20.71
2023-03-04T09:04:23.063Z,15.00
2023-03-04T09:09:29.831Z,31.78
2023-03-04T09:14:36.024Z,21.07
2023-03-04T09:19:42.224Z,23.57
2023-03-04T09:24:49.404Z,17.86
2023-03-04T09:29:55.871Z,22.85
2023-03-04T09:35:03.286Z,18.93
2023-03-04T09:40:09.556Z,17.50
2023-03-04T09:45:15.703Z,21.43
2023-03-04T09:50:23.818Z,21.07
2023-03-04T09:55:31.057Z,35.71
2023-03-04T10:00:37.879Z,17.86
2023-03-04T10:05:43.961Z,14.28
2023-03-04T10:10:50.692Z,16.43
2023-03-04T10:15:56.929Z,5.71
2023-03-04T10:21:03.561Z,10.71
2023-03-04T10:26:09.752Z,20.71
2023-03-04T10:31:16.846Z,12.86
2023-03-04T10:36:23.412Z,13.93
2023-03-04T10:41:29.826Z,6.78
2023-03-04T10:46:35.887Z,15.36
2023-03-04T10:51:44.936Z,8.21
2023-03-04T10:56:51.145Z,0.71
2023-03-04T11:01:59.092Z,17.50
2023-03-04T11:07:05.684Z,8.93
2023-03-04T11:12:11.254Z,5.36
2023-03-04T11:17:19.264Z,8.93
2023-03-04T11:22:26.538Z,10.71
2023-03-04T11:27:35.082Z,16.43
2023-03-04T11:32:43.707Z,20.35
2023-03-04T11:37:52.242Z,13.93
2023-03-04T11:42:59.643Z,19.62
2023-03-04T11:48:05.811Z,14.53
2023-03-04T11:53:13.605Z,2.14
2023-03-04T11:58:21.901Z,5.64
2023-03-04T12:03:28.877Z,11.43
2023-03-04T12:08:37.514Z,8.65
2023-03-04T12:13:43.086Z,11.66
2023-03-04T12:18:50.662Z,6.51
2023-03-04T12:23:57.392Z,7.50
2023-03-04T12:29:04.816Z,0.38
2023-03-04T12:34:11.522Z,16.71
2023-03-04T12:39:18.208Z,13.66
2023-03-04T12:44:25.789Z,3.06
2023-03-04T12:49:35.476Z,6.13
2023-03-04T12:54:39.330Z,8.04
2023-03-04T12:59:46.420Z,12.16
2023-03-04T13:04:52.934Z,10.94
2023-03-04T13:10:00.311Z,5.67
2023-03-04T13:15:15.544Z,4.12
2023-03-04T13:20:13.189Z,1.92
2023-03-04T13:25:19.182Z,18.57
2023-03-04T13:30:27.878Z,13.22
2023-03-04T13:35:37.615Z,15.36
2023-03-04T13:40:49.054Z,16.78
2023-03-04T13:45:46.269Z,10.71
2023-03-04T13:50:58.469Z,11.43
2023-03-04T15:57:54.035Z,11.78
2023-03-04T16:03:00.389Z,15.52
2023-03-04T16:08:08.496Z,3.24
2023-03-04T16:13:15.669Z,11.09
2023-03-04T16:18:21.826Z,0.00
2023-03-04T16:23:29.293Z,5.07
2023-03-04T16:28:35.925Z,17.17
2023-03-04T16:33:42.364Z,16.35
2023-03-04T16:38:49.028Z,16.93
2023-03-04T16:43:55.970Z,21.07
2023-03-04T16:49:07.622Z,2.86
2023-03-04T16:54:03.854Z,11.62
2023-03-04T16:59:10.818Z,5.36
2023-03-04T17:04:18.554Z,20.71
2023-03-04T17:09:25.604Z,20.35
2023-03-04T17:14:32.112Z,24.28
2023-03-04T17:19:41.005Z,21.07
2023-03-04T17:24:48.436Z,0.00
2023-03-04T17:29:56.333Z,3.21
2023-03-04T17:35:04.112Z,14.28
2023-03-04T17:40:14.889Z,19.31
2023-03-04T17:45:12.791Z,16.43
2023-03-04T17:50:20.543Z,9.28
2023-03-04T17:55:28.057Z,18.93
2023-03-04T18:00:45.677Z,27.85
2023-03-04T18:05:42.478Z,14.64
2023-03-04T18:10:50.284Z,18.21
2023-03-04T18:16:00.330Z,19.64
2023-03-04T18:20:57.194Z,1.43
2023-03-04T18:26:03.592Z,18.93
2023-03-04T18:31:11.762Z,20.71
2023-03-04T18:36:22.055Z,17.50
2023-03-04T18:41:19.370Z,20.71
2023-03-04T18:46:27.515Z,22.50
2023-03-04T18:51:35.139Z,25.71
2023-03-04T18:56:42.576Z,21.07
2023-03-04T19:01:49.945Z,21.07
2023-03-04T19:06:57.934Z,21.07
2023-03-04T19:12:04.907Z,21.07
2023-03-04T19:17:12.396Z,20.71
2023-03-04T19:22:20.166Z,21.07
2023-03-04T19:27:26.714Z,25.35
2023-03-04T19:32:34.392Z,19.64
2023-03-04T19:37:40.254Z,21.43
2023-03-04T19:42:47.071Z,26.07
2023-03-04T19:47:53.487Z,20.35
2023-03-04T19:53:00.378Z,20.35
2023-03-04T19:58:07.799Z,20.71
2023-03-04T20:03:14.493Z,18.21
2023-03-04T20:08:20.970Z,30.35
2023-03-04T20:13:27.708Z,21.07
2023-03-04T20:18:34.097Z,31.78
2023-03-04T20:23:42.197Z,26.07
2023-03-04T20:28:49.568Z,35.00
2023-03-04T20:33:57.201Z,26.43
2023-03-04T20:39:12.497Z,20.35
2023-03-04T20:44:10.922Z,21.43
2023-03-04T20:49:17.359Z,20.71
2023-03-04T20:54:31.646Z,30.71
2023-03-04T20:59:29.161Z,21.78
2023-03-04T21:04:37.219Z,31.43
2023-03-04T21:09:46.997Z,28.21
2023-03-04T21:14:44.592Z,21.07
2023-03-04T21:19:50.871Z,37.14
2023-03-04T21:24:58.418Z,21.07
2023-03-04T21:30:05.842Z,22.14
2023-03-04T21:35:15.170Z,21.78
2023-03-04T21:40:21.420Z,22.85
2023-03-04T21:45:29.081Z,32.14
2023-03-04T21:50:36.526Z,25.00
2023-03-04T21:55:45.060Z,21.07
2023-03-04T22:00:52.477Z,33.57
2023-03-04T22:06:00.057Z,19.28
2023-03-04T22:11:06.256Z,21.78
2023-03-04T22:16:13.671Z,35.00
2023-03-04T22:21:20.012Z,31.78
2023-03-04T22:26:28.654Z,31.07
2023-03-04T22:31:53.023Z,24.28
2023-03-04T22:36:41.519Z,23.93
2023-03-04T22:41:48.921Z,38.57
2023-03-04T22:46:55.923Z,21.43
2023-03-04T22:52:03.008Z,28.57
2023-03-04T22:57:10.735Z,27.50
2023-03-04T23:02:18.108Z,21.78
2023-03-04T23:07:25.895Z,21.78
2023-03-04T23:12:32.488Z,34.64
2023-03-04T23:17:40.548Z,21.07
2023-03-04T23:22:49.123Z,21.78
2023-03-04T23:27:56.003Z,38.21
2023-03-04T23:33:02.422Z,34.64
2023-03-04T23:38:09.020Z,41.07
2023-03-04T23:43:15.319Z,34.64
2023-03-04T23:48:21.952Z,21.78
2023-03-04T23:53:29.413Z,32.50
2023-03-04T23:58:36.910Z,34.28
